Time;durP1;ratioP1;P1;durP2;ratioP2;P2;SDS_P1;SDS_P2;PMS_P1;PMS_P2;Temp;Humidity;BMP_temperature;BMP_pressure;BME280_temperature;BME280_humidity;BME280_pressure;Samples;Min_cycle;Max_cycle;Signal;HPM_P1;HPM_P2
2023/10/01 00:01:03;;;;;;;7.45;4.85;;;;;;;16.99;60.82;102365.56;5059081;27;20065;-65
2023/10/01 00:03:31;;;;;;;8.48;4.82;;;;;;;16.94;60.74;102348.28;5058583;27;20055;-65
2023/10/01 00:05:59;;;;;;;9.45;5.28;;;;;;;16.97;60.90;102361.41;5087001;27;20043;-65
2023/10/01 00:08:29;;;;;;;9.35;5.07;;;;;;;16.96;60.83;102352.44;5063528;27;20064;-65
2023/10/01 00:10:57;;;;;;;7.63;5.05;;;;;;;16.93;60.87;102361.03;5058937;28;20097;-65
2023/10/01 00:13:26;;;;;;;9.95;5.32;;;;;;;16.92;60.83;102362.09;5056747;27;20049;-64
2023/10/01 00:15:55;;;;;;;10.20;4.60;;;;;;;16.90;60.82;102362.31;5062517;27;20144;-65
2023/10/01 00:18:25;;;;;;;9.93;5.07;;;;;;;16.91;60.68;102371.28;5057664;28;20052;-65
2023/10/01 00:20:53;;;;;;;7.00;4.80;;;;;;;16.88;60.77;102369.84;5057554;27;20140;-65
2023/10/01 00:23:20;;;;;;;8.40;4.80;;;;;;;16.88;60.85;102369.84;5055935;27;20093;-65
2023/10/01 00:25:48;;;;;;;9.57;4.78;;;;;;;16.86;60.84;102371.97;5062652;27;20045;-65
2023/10/01 00:28:16;;;;;;;8.73;5.00;;;;;;;16.86;60.72;102377.41;5056983;27;20045;-64
2023/10/01 00:30:44;;;;;;;8.30;5.05;;;;;;;16.84;60.70;102381.41;5059290;27;20049;-65
2023/10/01 00:33:15;;;;;;;9.43;5.35;;;;;;;16.79;60.64;102370.38;5058461;28;20048;-65
2023/10/01 00:35:43;;;;;;;7.30;4.30;;;;;;;16.82;60.59;102364.50;5056740;27;20049;-65
2023/10/01 00:38:12;;;;;;;7.38;4.70;;;;;;;16.81;60.64;102373.69;5057288;27;20060;-65
2023/10/01 00:40:43;;;;;;;8.55;5.35;;;;;;;16.76;60.71;102363.53;5059493;27;20060;-65
2023/10/01 00:43:12;;;;;;;10.15;5.93;;;;;;;16.78;60.84;102361.41;5056983;28;20079;-65
2023/10/01 00:45:41;;;;;;;6.93;4.63;;;;;;;16.76;60.66;102362.69;5058312;27;20147;-65
2023/10/01 00:48:11;;;;;;;6.93;4.55;;;;;;;16.76;60.56;102363.53;5057217;27;20040;-66
2023/10/01 00:50:41;;;;;;;8.05;5.45;;;;;;;16.75;60.74;102361.03;5057799;27;20049;-66
2023/10/01 00:53:10;;;;;;;10.07;4.95;;;;;;;16.74;60.58;102362.09;5059381;27;20060;-65
2023/10/01 00:55:39;;;;;;;7.63;4.97;;;;;;;16.73;60.65;102355.81;5058774;28;20344;-65
2023/10/01 00:58:09;;;;;;;7.82;5.00;;;;;;;16.74;60.63;102345.78;5058435;28;20057;-65
2023/10/01 01:00:38;;;;;;;7.45;5.03;;;;;;;16.72;60.63;102351.44;5060623;27;20053;-65
2023/10/01 01:03:08;;;;;;;8.75;5.25;;;;;;;16.70;60.50;102344.59;5062330;27;20497;-65
2023/10/01 01:05:37;;;;;;;6.60;4.15;;;;;;;16.70;60.52;102337.28;5080423;27;20043;-65
2023/10/01 01:08:20;;;;;;;5.90;4.30;;;;;;;16.69;60.59;102351.91;5079971;27;20149;-65
2023/10/01 01:10:50;;;;;;;8.82;4.97;;;;;;;16.69;60.53;102330.19;5063595;27;20057;-65
2023/10/01 01:13:18;;;;;;;7.95;4.82;;;;;;;16.67;60.50;102326.88;5063769;27;20045;-65
2023/10/01 01:15:47;;;;;;;7.35;4.50;;;;;;;16.65;60.51;102325.44;5057543;28;20041;-64
2023/10/01 01:18:20;;;;;;;8.57;4.78;;;;;;;16.61;60.33;102319.59;5063344;27;20052;-66
2023/10/01 01:20:49;;;;;;;8.50;4.82;;;;;;;16.63;60.50;102317.47;5060225;28;20081;-66
2023/10/01 01:23:19;;;;;;;9.27;4.45;;;;;;;16.64;60.50;102319.16;5054691;27;20067;-65
2023/10/01 01:25:49;;;;;;;7.85;4.60;;;;;;;16.62;60.55;102318.53;5060022;28;20482;-68
2023/10/01 01:28:24;;;;;;;9.32;4.60;;;;;;;16.61;60.46;102314.16;5058380;28;20074;-68
2023/10/01 01:30:52;;;;;;;7.30;4.38;;;;;;;16.61;60.47;102316.88;5059746;27;20117;-68
2023/10/01 01:33:26;;;;;;;8.48;4.60;;;;;;;16.62;60.57;102320.44;5061711;27;20133;-68
2023/10/01 01:35:54;;;;;;;8.07;4.50;;;;;;;16.60;60.51;102312.50;5060473;28;20053;-68
2023/10/01 01:38:24;;;;;;;6.78;4.07;;;;;;;16.50;60.58;102293.22;5059452;28;20068;-68
2023/10/01 01:40:53;;;;;;;7.03;4.85;;;;;;;16.58;60.39;102311.91;5059863;28;20862;-68
2023/10/01 01:43:30;;;;;;;7.47;4.68;;;;;;;16.57;60.52;102310.25;5060020;27;20058;-68
2023/10/01 01:46:00;;;;;;;8.13;4.80;;;;;;;16.56;60.52;102309.41;5060189;28;20113;-68
2023/10/01 01:48:31;;;;;;;7.18;4.00;;;;;;;16.55;60.34;102299.63;5053257;27;20045;-68
2023/10/01 01:51:01;;;;;;;9.15;4.47;;;;;;;16.54;60.35;102303.38;5058980;28;20048;-68
2023/10/01 01:53:34;;;;;;;6.70;4.10;;;;;;;16.54;60.47;102305.28;5059900;27;20053;-68
2023/10/01 01:56:10;;;;;;;7.57;4.25;;;;;;;16.53;60.36;102309.03;5073365;27;20146;-68
2023/10/01 01:58:39;;;;;;;7.72;4.57;;;;;;;16.51;60.28;102298.41;5059040;27;20064;-68
2023/10/01 02:01:23;;;;;;;6.30;4.28;;;;;;;16.51;60.41;102292.16;5060976;27;20045;-68
2023/10/01 02:03:53;;;;;;;7.70;4.05;;;;;;;16.49;60.25;102291.53;5057945;27;20057;-67
2023/10/01 02:06:27;;;;;;;7.18;4.22;;;;;;;16.49;60.44;102296.97;5100171;27;20079;-68
2023/10/01 02:08:58;;;;;;;8.63;4.30;;;;;;;16.48;60.32;102295.31;5057932;27;20090;-68
2023/10/01 02:11:32;;;;;;;7.68;4.05;;;;;;;16.45;60.35;102290.34;5051794;27;20071;-68
2023/10/01 02:14:02;;;;;;;7.07;4.15;;;;;;;16.44;60.23;102302.25;5060864;27;20086;-68
2023/10/01 02:16:37;;;;;;;6.75;3.70;;;;;;;16.42;60.36;102294.34;5058203;28;20410;-69
2023/10/01 02:19:17;;;;;;;9.38;4.60;;;;;;;16.42;60.27;102290.78;5059207;27;20041;-69
2023/10/01 02:21:52;;;;;;;5.95;3.75;;;;;;;16.41;60.36;102287.25;5059009;28;20048;-68
2023/10/01 02:24:37;;;;;;;8.02;4.07;;;;;;;16.39;60.30;102283.94;5055955;28;20049;-69
2023/10/01 02:27:09;;;;;;;7.35;3.85;;;;;;;16.38;60.45;102284.97;5057396;27;20212;-69
2023/10/01 02:29:45;;;;;;;7.15;3.65;;;;;;;16.38;60.24;102282.28;5058202;27;20140;-68
2023/10/01 02:32:14;;;;;;;8.07;4.50;;;;;;;16.38;60.27;102276.00;5062234;28;20455;-68
2023/10/01 02:34:43;;;;;;;5.15;3.38;;;;;;;16.36;60.25;102272.69;5057218;27;20076;-68
2023/10/01 02:37:25;;;;;;;6.47;3.47;;;;;;;16.35;60.34;102276.47;5059577;27;20377;-68
2023/10/01 02:39:53;;;;;;;9.35;4.55;;;;;;;16.35;60.33;102279.19;5059748;27;20141;-68
2023/10/01 02:42:22;;;;;;;7.00;3.42;;;;;;;16.33;60.29;102281.28;5057123;27;20128;-68
2023/10/01 02:44:53;;;;;;;8.35;4.47;;;;;;;16.31;60.24;102273.38;5057985;27;20078;-69
2023/10/01 02:47:23;;;;;;;7.35;3.97;;;;;;;16.30;60.33;102277.13;5059276;27;20098;-68
2023/10/01 02:49:53;;;;;;;6.47;3.65;;;;;;;16.31;60.37;102278.78;5062530;28;20041;-68
2023/10/01 02:52:22;;;;;;;6.63;4.15;;;;;;;16.30;60.34;102285.28;5056303;28;20041;-68
2023/10/01 02:54:54;;;;;;;7.97;3.45;;;;;;;16.28;60.34;102287.38;5066738;27;20113;-68
2023/10/01 02:57:24;;;;;;;8.50;3.65;;;;;;;16.28;60.17;102292.81;5055811;28;20076;-68
2023/10/01 03:02:39;;;;;;;6.80;4.38;;;;;;;16.20;60.29;102288.50;5095081;27;20049;-68
2023/10/01 03:05:14;;;;;;;5.60;3.40;;;;;;;16.26;60.20;102295.75;5053190;27;20063;-68
2023/10/01 03:07:45;;;;;;;6.35;3.90;;;;;;;16.25;60.14;102296.81;5058232;27;20052;-68
2023/10/01 03:10:25;;;;;;;6.45;3.75;;;;;;;16.17;60.20;102274.56;5055729;28;20052;-68
2023/10/01 03:12:55;;;;;;;6.45;3.78;;;;;;;16.19;60.31;102278.72;5056198;28;20056;-68
2023/10/01 03:15:27;;;;;;;6.22;3.92;;;;;;;16.23;60.29;102289.94;5060965;27;20148;-69
2023/10/01 03:17:57;;;;;;;7.63;3.70;;;;;;;16.23;60.38;102284.50;5056933;28;20053;-68
2023/10/01 03:23:24;;;;;;;6.18;3.63;;;;;;;16.22;59.84;102282.84;5059814;28;20474;-68
2023/10/01 03:25:57;;;;;;;6.57;4.00;;;;;;;16.22;60.27;102294.53;5059459;27;20049;-68
2023/10/01 03:28:28;;;;;;;5.72;4.00;;;;;;;16.21;60.20;102287.44;5059420;28;20139;-68
2023/10/01 03:31:06;;;;;;;6.90;4.00;;;;;;;16.21;60.25;102292.06;5057772;28;20071;-68
2023/10/01 03:33:37;;;;;;;9.02;4.13;;;;;;;16.21;60.28;102294.75;5073780;27;20057;-68
2023/10/01 03:36:09;;;;;;;6.68;3.67;;;;;;;16.18;60.25;102290.63;5075133;27;20173;-68
2023/10/01 03:38:38;;;;;;;6.30;3.35;;;;;;;16.18;60.28;102287.91;5061264;27;20078;-69
2023/10/01 03:41:08;;;;;;;9.13;3.85;;;;;;;16.15;60.37;102288.34;5059091;28;20045;-68
2023/10/01 03:43:37;;;;;;;6.43;3.17;;;;;;;16.14;60.28;102281.25;5060115;28;20049;-68
2023/10/01 03:46:25;;;;;;;8.25;3.70;;;;;;;16.14;60.16;102283.16;5058639;27;20052;-69
2023/10/01 03:49:00;;;;;;;6.80;3.33;;;;;;;16.11;60.38;102283.59;5056602;28;20048;-68
2023/10/01 03:51:52;;;;;;;8.85;3.70;;;;;;;16.09;60.42;102280.28;5048240;28;20121;-68
2023/10/01 03:54:20;;;;;;;6.97;3.67;;;;;;;16.08;60.36;102279.44;5055699;27;20049;-68
2023/10/01 03:56:56;;;;;;;7.60;3.65;;;;;;;16.09;60.22;102275.69;5053023;27;20117;-68
2023/10/01 03:59:28;;;;;;;7.43;3.55;;;;;;;16.08;60.34;102276.72;5059092;28;20048;-68
2023/10/01 04:02:02;;;;;;;6.20;3.20;;;;;;;16.07;60.32;102276.97;5058084;27;20052;-69
2023/10/01 04:04:56;;;;;;;5.60;3.28;;;;;;;16.06;60.35;102272.59;5056063;28;20045;-68
2023/10/01 04:07:22;;;;;;;5.43;3.28;;;;;;;16.05;60.25;102273.63;5083335;27;20052;-68
2023/10/01 04:09:50;;;;;;;5.72;2.92;;;;;;;16.05;60.44;102276.34;5057063;27;20081;-69
2023/10/01 04:12:19;;;;;;;4.82;2.83;;;;;;;16.03;60.44;102276.56;5058532;28;20056;-68
2023/10/01 04:14:52;;;;;;;8.27;3.38;;;;;;;16.03;60.50;102276.56;5056543;28;20378;-69
2023/10/01 04:17:25;;;;;;;5.85;3.00;;;;;;;16.01;60.45;102275.13;5058211;27;20130;-68
2023/10/01 04:19:59;;;;;;;6.18;3.20;;;;;;;16.00;60.43;102278.91;5056889;27;20049;-68
2023/10/01 04:22:28;;;;;;;6.85;3.20;;;;;;;15.99;60.33;102283.50;5094992;27;20043;-68
2023/10/01 04:25:09;;;;;;;5.85;3.13;;;;;;;15.97;60.52;102272.03;5052706;27;20041;-68
2023/10/01 04:27:41;;;;;;;6.00;3.42;;;;;;;15.97;60.30;102269.31;5046333;28;20045;-68
2023/10/01 04:30:11;;;;;;;6.03;3.35;;;;;;;15.98;60.37;102272.88;5058941;27;20049;-68
2023/10/01 04:32:39;;;;;;;6.55;3.20;;;;;;;15.95;60.36;102272.25;5062217;28;20053;-68
2023/10/01 04:35:14;;;;;;;6.10;3.20;;;;;;;15.95;60.32;102271.44;5058533;27;20406;-68
2023/10/01 04:37:48;;;;;;;6.15;3.10;;;;;;;15.93;60.40;102263.53;5065707;27;20510;-69
2023/10/01 04:40:39;;;;;;;6.07;3.35;;;;;;;15.94;60.39;102267.91;5061428;27;20041;-69
2023/10/01 04:43:10;;;;;;;7.43;3.40;;;;;;;15.93;60.22;102270.81;5058177;28;20077;-69
2023/10/01 04:45:41;;;;;;;7.30;3.03;;;;;;;15.91;60.74;102265.63;5062049;28;20127;-69
2023/10/01 04:48:15;;;;;;;7.13;3.38;;;;;;;15.89;60.40;102270.44;5060394;27;20049;-69
2023/10/01 04:50:46;;;;;;;7.80;3.75;;;;;;;15.89;60.32;102265.03;5050740;27;20418;-69
2023/10/01 04:53:14;;;;;;;7.35;3.20;;;;;;;15.89;60.35;102262.31;5058791;28;20052;-69
2023/10/01 04:55:43;;;;;;;9.95;4.13;;;;;;;15.90;60.36;102268.56;5060577;27;20117;-70
2023/10/01 04:58:14;;;;;;;7.93;3.55;;;;;;;15.90;60.30;102272.09;5056345;28;20068;-67
2023/10/01 05:00:45;;;;;;;7.85;3.80;;;;;;;15.91;60.29;102275.63;5048885;27;20054;-69
2023/10/01 05:03:15;;;;;;;4.90;2.90;;;;;;;15.90;60.37;102271.28;5059079;27;20048;-70
2023/10/01 05:05:44;;;;;;;6.05;3.85;;;;;;;15.87;60.44;102271.72;5082299;27;20510;-69
2023/10/01 05:08:13;;;;;;;7.70;3.30;;;;;;;15.87;60.32;102275.25;4714607;27;10000169;-71
2023/10/01 05:10:56;;;;;;;5.85;2.92;;;;;;;15.87;60.31;102275.25;5058736;27;20282;-69
2023/10/01 05:13:24;;;;;;;8.90;4.03;;;;;;;15.85;60.32;102269.22;5056987;28;20055;-70
2023/10/01 05:15:56;;;;;;;6.63;3.50;;;;;;;15.86;60.32;102276.31;5075313;27;20462;-69
2023/10/01 05:18:27;;;;;;;9.60;3.67;;;;;;;15.83;60.34;102271.34;5057500;27;20397;-71
2023/10/01 05:20:58;;;;;;;7.35;3.33;;;;;;;15.79;60.43;102272.81;5055597;28;20113;-71
2023/10/01 05:23:27;;;;;;;8.15;3.75;;;;;;;15.83;60.27;102273.22;5056512;27;20047;-67
2023/10/01 05:25:56;;;;;;;7.95;3.58;;;;;;;15.77;60.34;102257.84;5055798;28;20060;-64
2023/10/01 05:28:31;;;;;;;6.53;3.70;;;;;;;15.81;60.47;102264.47;5052353;28;20046;-66
2023/10/01 05:31:05;;;;;;;10.93;3.97;;;;;;;15.80;60.41;102270.94;5058126;27;20077;-64
2023/10/01 05:33:34;;;;;;;6.07;3.42;;;;;;;15.78;60.49;102265.75;5054634;27;20068;-64
2023/10/01 05:36:04;;;;;;;11.18;3.70;;;;;;;15.78;60.30;102281.19;5051679;28;20045;-64
2023/10/01 05:38:34;;;;;;;6.43;3.72;;;;;;;15.75;60.52;102282.44;5051396;27;20053;-66
2023/10/01 05:41:03;;;;;;;6.70;4.05;;;;;;;15.76;60.58;102284.13;5057172;28;20087;-67
2023/10/01 05:43:35;;;;;;;8.93;4.22;;;;;;;15.74;60.48;102288.91;5054775;27;20064;-65
2023/10/01 05:46:09;;;;;;;18.52;4.63;;;;;;;15.63;60.67;102281.50;5059044;27;20049;-67
2023/10/01 05:48:39;;;;;;;9.25;3.83;;;;;;;15.50;60.93;102285.16;5059875;27;20148;-69
2023/10/01 05:51:11;;;;;;;11.43;5.15;;;;;;;15.41;61.38;102291.88;5055337;28;20057;-67
2023/10/01 05:53:40;;;;;;;9.00;4.85;;;;;;;15.19;62.30;102301.38;5056979;27;20073;-69
2023/10/01 05:56:11;;;;;;;11.38;4.75;;;;;;;15.00;62.87;102296.91;5090034;27;20056;-67
2023/10/01 05:58:39;;;;;;;11.85;5.15;;;;;;;15.05;62.90;102295.22;5056305;28;20044;-70
2023/10/01 06:01:15;;;;;;;12.85;4.40;;;;;;;15.15;62.33;102298.28;5058206;28;20057;-71
2023/10/01 06:03:44;;;;;;;10.13;4.93;;;;;;;15.19;62.08;102280.56;5060154;27;20047;-70
2023/10/01 06:06:14;;;;;;;9.75;4.43;;;;;;;15.31;61.88;102283.41;5088948;27;20416;-68
2023/10/01 06:08:46;;;;;;;9.07;4.68;;;;;;;15.36;61.64;102277.31;5060167;28;20045;-66
2023/10/01 06:11:16;;;;;;;9.75;3.75;;;;;;;15.41;61.49;102278.31;5060758;28;20049;-66
2023/10/01 06:13:50;;;;;;;10.45;4.38;;;;;;;15.43;61.42;102281.66;5062785;27;20074;-70
2023/10/01 06:16:23;;;;;;;10.23;4.18;;;;;;;15.42;61.40;102280.00;5064333;27;20045;-69
2023/10/01 06:18:56;;;;;;;9.65;4.65;;;;;;;15.40;61.23;102279.38;5059111;27;20045;-67
2023/10/01 06:21:27;;;;;;;8.05;4.38;;;;;;;15.41;61.24;102278.31;5059321;28;20416;-67
2023/10/01 06:23:58;;;;;;;10.77;4.97;;;;;;;15.49;61.29;102301.63;5059764;28;20565;-67
2023/10/01 06:26:33;;;;;;;10.30;4.28;;;;;;;15.51;61.22;102302.22;5057033;27;20041;-67
2023/10/01 06:29:02;;;;;;;8.82;4.28;;;;;;;15.51;61.30;102288.69;5061993;27;20076;-67
2023/10/01 06:31:47;;;;;;;8.63;4.15;;;;;;;15.50;61.11;102287.84;5061123;28;20402;-68
2023/10/01 06:34:19;;;;;;;12.38;4.97;;;;;;;15.52;61.18;102290.34;5060007;28;20043;-67
2023/10/01 06:36:50;;;;;;;7.97;4.20;;;;;;;15.52;61.36;102293.06;5064464;27;20176;-67
2023/10/01 06:39:20;;;;;;;9.60;4.40;;;;;;;15.50;61.92;102293.28;5055997;28;20052;-67
2023/10/01 06:41:49;;;;;;;9.88;4.40;;;;;;;15.52;61.87;102287.63;5061540;28;20854;-67
2023/10/01 06:44:17;;;;;;;11.13;4.30;;;;;;;15.53;61.82;102286.59;5061683;27;20140;-67
2023/10/01 06:46:48;;;;;;;9.68;3.95;;;;;;;15.57;61.53;102285.13;5068887;27;20049;-67
2023/10/01 06:49:18;;;;;;;7.85;3.95;;;;;;;15.57;61.53;102285.97;5060589;28;20074;-67
2023/10/01 06:51:46;;;;;;;7.85;3.80;;;;;;;15.58;61.49;102290.31;5055939;27;20402;-67
2023/10/01 06:54:18;;;;;;;9.15;4.65;;;;;;;15.57;61.55;102294.09;5062307;27;20087;-67
2023/10/01 06:56:47;;;;;;;8.32;4.40;;;;;;;15.59;61.27;102299.28;5060499;27;20113;-67
2023/10/01 06:59:17;;;;;;;9.10;4.18;;;;;;;15.55;61.55;102293.44;5060745;28;20082;-67
2023/10/01 07:01:56;;;;;;;8.43;4.00;;;;;;;15.59;61.41;102292.00;5061369;28;20060;-67
2023/10/01 07:04:24;;;;;;;7.28;3.55;;;;;;;15.58;61.51;102290.31;5055125;28;20171;-67
2023/10/01 07:06:53;;;;;;;10.80;5.18;;;;;;;15.59;61.68;102278.44;5101860;27;20053;-67
2023/10/01 07:09:27;;;;;;;10.48;4.25;;;;;;;15.59;61.84;102281.16;5058489;27;20088;-67
2023/10/01 07:11:57;;;;;;;7.25;3.92;;;;;;;15.60;61.93;102282.78;5089870;27;20055;-65
2023/10/01 07:14:38;;;;;;;7.93;3.83;;;;;;;15.64;61.70;102277.75;5079690;27;20074;-66
2023/10/01 07:17:09;;;;;;;7.55;4.07;;;;;;;15.56;62.01;102259.03;5088145;27;20059;-66
2023/10/01 07:19:38;;;;;;;13.27;4.03;;;;;;;15.73;62.27;102279.13;5113763;27;20077;-67
2023/10/01 07:22:07;;;;;;;8.88;4.88;;;;;;;15.79;61.99;102272.00;5064968;27;20067;-67
2023/10/01 07:24:35;;;;;;;10.00;4.13;;;;;;;15.64;61.80;102258.78;5056483;27;20049;-67
2023/10/01 07:27:06;;;;;;;11.02;4.97;;;;;;;15.77;61.98;102283.06;5085544;27;20046;-67
2023/10/01 07:29:35;;;;;;;7.68;3.25;;;;;;;15.77;61.90;102282.22;5095860;27;20057;-67
2023/10/01 07:32:07;;;;;;;9.30;3.70;;;;;;;15.73;62.02;102287.25;5056956;27;20044;-67
2023/10/01 07:34:39;;;;;;;8.07;4.10;;;;;;;15.73;62.07;102287.25;5063690;27;20068;-67
2023/10/01 07:37:08;;;;;;;8.98;4.07;;;;;;;15.75;62.12;102287.88;5077979;27;20049;-67
2023/10/01 07:39:40;;;;;;;7.90;3.83;;;;;;;15.78;62.03;102292.84;5076619;27;20110;-67
2023/10/01 07:42:10;;;;;;;9.60;4.40;;;;;;;15.80;62.43;102284.50;5057816;27;20072;-67
2023/10/01 07:44:39;;;;;;;7.63;4.43;;;;;;;15.81;62.22;102297.84;5071652;27;20054;-68
2023/10/01 07:47:07;;;;;;;7.25;3.38;;;;;;;15.83;62.47;102294.91;5066667;27;20041;-67
2023/10/01 07:49:48;;;;;;;9.55;4.97;;;;;;;15.82;62.35;102304.91;5059530;27;20061;-69
2023/10/01 07:52:18;;;;;;;9.02;3.92;;;;;;;15.78;62.75;102286.59;5055234;28;20049;-68
2023/10/01 07:54:48;;;;;;;8.45;3.97;;;;;;;15.89;62.50;102299.44;5056921;28;20082;-68
2023/10/01 07:57:27;;;;;;;9.95;4.30;;;;;;;15.90;62.59;102312.78;5059006;27;20398;-67
2023/10/01 07:59:55;;;;;;;7.88;4.07;;;;;;;15.90;62.46;102312.78;5099847;27;20083;-67
2023/10/01 08:02:24;;;;;;;13.40;5.15;;;;;;;15.81;62.65;102300.53;5070880;27;20143;-67
2023/10/01 08:05:01;;;;;;;9.40;4.40;;;;;;;15.85;62.64;102311.78;5063738;28;20057;-67
2023/10/01 08:10:17;;;;;;;8.32;4.40;;;;;;;15.86;62.91;102308.00;5063670;27;20050;-68
2023/10/01 08:15:38;;;;;;;10.95;4.95;;;;;;;15.91;63.20;102305.47;5125189;27;20411;-67
2023/10/01 08:21:00;;;;;;;10.95;5.00;;;;;;;15.90;62.98;102295.69;5079740;27;20053;-68
2023/10/01 08:23:28;;;;;;;10.60;4.50;;;;;;;15.89;62.86;102291.31;5062558;28;20044;-68
2023/10/01 08:25:56;;;;;;;10.75;4.88;;;;;;;16.00;64.15;102292.47;5065839;27;20188;-68
2023/10/01 08:28:27;;;;;;;10.38;4.15;;;;;;;16.00;63.37;102301.44;5054310;28;20060;-69
2023/10/01 08:32:06;;;;;;;8.82;4.43;;;;;;;16.01;63.63;102300.38;5064051;27;20112;-68
2023/10/01 08:33:53;;;;;;;11.07;4.50;;;;;;;16.01;63.37;102311.22;5059226;28;20785;-68
2023/10/01 08:36:25;;;;;;;10.90;5.05;;;;;;;16.00;63.57;102317.69;5067325;27;20045;-68
2023/10/01 08:41:50;;;;;;;10.57;5.10;;;;;;;16.09;64.07;102319.06;5072178;27;20053;-66
2023/10/01 08:44:30;;;;;;;12.40;5.00;;;;;;;16.10;63.65;102319.91;5061306;27;20041;-67
2023/10/01 08:47:21;;;;;;;12.88;5.63;;;;;;;16.09;64.28;102313.66;5079803;27;20045;-67
2023/10/01 08:49:51;;;;;;;14.85;5.35;;;;;;;16.07;64.00;102318.47;5083190;27;20049;-68
2023/10/01 08:52:25;;;;;;;14.32;5.00;;;;;;;16.07;64.30;102321.19;5072559;27;20049;-68
2023/10/01 08:54:54;;;;;;;12.00;5.10;;;;;;;16.08;64.38;102317.41;5082443;27;20072;-68
2023/10/01 08:57:36;;;;;;;10.35;5.00;;;;;;;16.09;64.43;102320.97;5115533;27;20039;-69
2023/10/01 09:00:16;;;;;;;11.32;5.75;;;;;;;16.09;64.37;102324.50;5075206;27;20057;-71
2023/10/01 09:02:50;;;;;;;15.50;5.95;;;;;;;16.08;64.56;102314.69;5072957;27;20107;-70
2023/10/01 09:05:23;;;;;;;13.70;6.05;;;;;;;16.13;64.71;102320.28;5079805;27;20113;-70
2023/10/01 09:10:39;;;;;;;15.32;6.28;;;;;;;16.22;64.72;102318.13;5098898;27;20047;-70
2023/10/01 09:13:09;;;;;;;17.83;6.82;;;;;;;16.27;64.96;102324.53;5124900;27;20502;-70
2023/10/01 09:15:43;;;;;;;19.25;7.13;;;;;;;16.28;64.90;102318.06;5115547;27;20213;-70
2023/10/01 09:18:11;;;;;;;19.45;7.78;;;;;;;16.30;65.26;102312.41;5091652;27;20051;-70
2023/10/01 09:20:42;;;;;;;13.85;6.53;;;;;;;16.34;65.11;102308.19;5088345;27;20055;-69
2023/10/01 09:23:11;;;;;;;16.05;6.00;;;;;;;16.35;65.33;102307.13;5071118;27;20482;-70
2023/10/01 09:25:41;;;;;;;13.32;6.15;;;;;;;16.35;65.30;102312.56;5069916;27;20054;-70
2023/10/01 09:28:20;;;;;;;13.55;5.57;;;;;;;16.40;65.90;102311.91;5067751;27;20074;-69
2023/10/01 09:31:01;;;;;;;13.77;6.03;;;;;;;16.54;65.93;102307.97;5085259;27;20046;-68
2023/10/01 09:33:32;;;;;;;13.63;5.82;;;;;;;16.81;65.83;102297.66;5098946;27;20075;-69
2023/10/01 09:36:00;;;;;;;13.07;6.28;;;;;;;16.69;65.49;102299.50;5080036;27;20145;-68
2023/10/01 09:38:30;;;;;;;14.45;6.35;;;;;;;16.62;65.97;102294.09;5068210;27;20649;-69
2023/10/01 09:40:59;;;;;;;12.65;5.75;;;;;;;16.65;66.71;102299.13;5104259;27;20050;-68
2023/10/01 09:43:29;;;;;;;15.13;6.75;;;;;;;16.66;66.26;102289.91;5089577;27;20482;-69
2023/10/01 09:46:00;;;;;;;12.43;5.97;;;;;;;16.75;65.94;102279.59;5078741;27;20049;-68
2023/10/01 09:48:36;;;;;;;15.77;7.28;;;;;;;16.81;66.01;102284.09;5054203;27;20042;-68
2023/10/01 09:51:08;;;;;;;12.55;6.20;;;;;;;16.72;66.09;102283.56;5056037;27;20048;-68
2023/10/01 09:53:47;;;;;;;10.20;5.63;;;;;;;16.83;66.95;102285.53;5061833;27;20132;-69
2023/10/01 09:56:26;;;;;;;11.85;5.53;;;;;;;16.83;66.18;102281.97;5107996;27;20044;-69
2023/10/01 09:58:58;;;;;;;15.63;5.90;;;;;;;16.84;66.37;102284.47;5078219;27;20037;-69
2023/10/01 10:01:28;;;;;;;13.07;6.53;;;;;;;16.87;66.72;102285.91;5125063;27;20054;-69
2023/10/01 10:04:01;;;;;;;13.23;5.85;;;;;;;17.38;65.68;102284.53;5100367;27;20460;-68
2023/10/01 10:06:31;;;;;;;13.75;5.43;;;;;;;17.29;66.26;102289.50;5065047;27;20052;-68
2023/10/01 10:09:06;;;;;;;15.40;6.57;;;;;;;17.25;66.41;102288.31;5074776;27;20055;-68
2023/10/01 10:11:40;;;;;;;11.20;5.72;;;;;;;17.26;67.47;102283.69;5098293;27;20499;-68
2023/10/01 10:14:56;;;;;;;15.07;6.85;;;;;;;17.21;66.77;102279.78;5060004;27;20081;-68
2023/10/01 10:17:27;;;;;;;13.43;5.60;;;;;;;17.63;66.60;102285.19;5069975;27;20088;-68
2023/10/01 10:20:24;;;;;;;13.73;6.32;;;;;;;17.57;65.90;102281.50;5069334;27;20053;-68
2023/10/01 10:23:13;;;;;;;15.60;5.70;;;;;;;17.51;65.98;102265.31;5059713;27;20053;-68
2023/10/01 10:25:44;;;;;;;14.93;8.35;;;;;;;17.60;66.53;102277.50;5061956;27;20049;-69
2023/10/01 10:28:24;;;;;;;18.27;8.00;;;;;;;17.51;66.35;102277.00;5054625;27;20454;-68
2023/10/01 10:31:29;;;;;;;12.10;6.80;;;;;;;17.56;66.61;102271.69;5078645;27;20058;-68
2023/10/01 10:34:21;;;;;;;12.25;6.13;;;;;;;17.68;66.52;102265.47;5092966;27;20051;-67
2023/10/01 10:36:54;;;;;;;12.13;6.40;;;;;;;17.61;66.75;102251.97;5096368;27;20402;-67
2023/10/01 10:40:27;;;;;;;13.30;7.28;;;;;;;17.59;66.77;102267.69;5082443;27;20076;-67
2023/10/01 10:43:18;;;;;;;13.68;5.88;;;;;;;17.70;66.93;102255.19;5127275;27;20069;-67
2023/10/01 10:46:04;;;;;;;12.43;5.93;;;;;;;17.71;66.71;102251.41;5119157;27;20043;-67
2023/10/01 10:48:59;;;;;;;11.10;6.23;;;;;;;17.73;66.68;102246.56;5118496;27;20497;-66
2023/10/01 10:51:47;;;;;;;11.68;5.93;;;;;;;17.68;66.78;102241.84;5059043;27;20304;-66
2023/10/01 10:54:31;;;;;;;12.90;6.65;;;;;;;17.80;66.99;102250.84;5081702;27;20048;-67
2023/10/01 10:56:59;;;;;;;15.23;7.15;;;;;;;17.87;66.98;102254.28;5053275;27;20049;-67
2023/10/01 10:59:31;;;;;;;15.32;6.53;;;;;;;17.93;67.71;102254.38;5082541;27;20117;-68
2023/10/01 11:01:59;;;;;;;12.25;6.22;;;;;;;18.00;68.23;102244.22;5082617;27;20092;-67
2023/10/01 11:04:31;;;;;;;12.15;6.32;;;;;;;18.07;67.67;102250.38;5070344;27;20493;-67
2023/10/01 11:07:02;;;;;;;12.40;6.43;;;;;;;18.12;67.87;102254.03;5070636;27;20394;-68
2023/10/01 11:09:32;;;;;;;15.18;6.85;;;;;;;18.01;67.88;102233.09;5106140;27;20059;-67
2023/10/01 11:12:19;;;;;;;16.10;7.50;;;;;;;18.18;67.82;102258.53;5070651;27;20072;-68
2023/10/01 11:15:19;;;;;;;16.42;6.22;;;;;;;18.24;68.31;102239.59;5078288;27;20052;-67
2023/10/01 11:17:47;;;;;;;11.43;5.93;;;;;;;18.34;67.62;102235.19;5063184;27;20466;-68
2023/10/01 11:20:22;;;;;;;11.65;6.72;;;;;;;18.38;67.58;102238.25;5081012;27;20046;-67
2023/10/01 11:22:54;;;;;;;14.77;6.80;;;;;;;18.36;68.13;102234.94;5072362;27;20136;-67
2023/10/01 11:25:23;;;;;;;14.25;5.97;;;;;;;18.34;68.01;102243.34;5062451;27;20049;-67
2023/10/01 11:28:04;;;;;;;13.55;6.05;;;;;;;18.52;67.65;102232.31;5075370;27;20095;-67
2023/10/01 11:30:42;;;;;;;12.90;5.88;;;;;;;18.60;67.47;102239.28;5092740;27;20056;-67
2023/10/01 11:33:13;;;;;;;15.18;6.38;;;;;;;18.57;67.68;102238.91;5117857;27;20049;-68
2023/10/01 11:36:06;;;;;;;15.02;7.60;;;;;;;18.60;67.74;102228.38;5065691;27;20101;-67
2023/10/01 11:38:38;;;;;;;13.98;6.60;;;;;;;18.63;67.74;102224.38;5058225;27;20153;-67
2023/10/01 11:41:06;;;;;;;14.45;6.45;;;;;;;18.65;67.71;102217.63;5114940;27;20054;-67
2023/10/01 11:43:39;;;;;;;12.35;6.10;;;;;;;18.69;67.52;102217.97;5086968;27;20080;-67
2023/10/01 11:46:19;;;;;;;14.20;6.82;;;;;;;18.71;67.50;102224.00;5070716;27;20049;-67
2023/10/01 11:49:00;;;;;;;15.15;6.10;;;;;;;18.76;67.33;102215.91;5069372;27;20047;-67
2023/10/01 11:51:36;;;;;;;12.95;5.70;;;;;;;18.88;67.15;102213.97;5059918;27;20052;-68
2023/10/01 11:54:11;;;;;;;17.50;6.97;;;;;;;18.98;66.21;102213.34;5089429;27;20049;-69
2023/10/01 11:56:43;;;;;;;16.30;8.60;;;;;;;19.30;64.27;102202.69;5069850;27;20063;-65
2023/10/01 11:59:17;;;;;;;14.00;7.30;;;;;;;19.31;64.47;102196.16;4706575;27;10000573;-67
2023/10/01 12:01:52;;;;;;;17.33;7.70;;;;;;;19.49;64.81;102204.09;5067804;27;20515;-68
2023/10/01 12:04:24;;;;;;;14.20;6.68;;;;;;;19.42;65.06;102203.44;5059452;27;20497;-69
2023/10/01 12:06:54;;;;;;;16.10;7.30;;;;;;;19.31;65.34;102202.44;5056957;27;20060;-68
2023/10/01 12:09:24;;;;;;;14.77;8.15;;;;;;;19.28;66.37;102202.94;5070893;27;20057;-67